Time;durP1;ratioP1;P1;durP2;ratioP2;P2;SDS_P1;SDS_P2;PMS_P1;PMS_P2;Temp;Humidity;BMP_temperature;BMP_pressure;BME280_temperature;BME280_humidity;BME280_pressure;Samples;Min_cycle;Max_cycle;Signal;HPM_P1;HPM_P2
2023/03/28 00:00:55;;;;;;;2.40;1.70;;;;;;;;;;5038747;28;20024;-78
2023/03/28 00:03:21;;;;;;;3.90;2.00;;;;;;;;;;5056512;28;20039;-78
2023/03/28 00:05:47;;;;;;;4.70;2.15;;;;;;;;;;5056058;28;20331;-78
2023/03/28 00:08:14;;;;;;;4.10;2.30;;;;;;;;;;5055358;28;20040;-78
2023/03/28 00:10:39;;;;;;;6.25;2.67;;;;;;;;;;5056602;28;20024;-78
2023/03/28 00:13:05;;;;;;;4.68;2.70;;;;;;;;;;5055271;28;20119;-78
2023/03/28 00:15:30;;;;;;;7.53;4.38;;;;;;;;;;5055087;28;20029;-78
2023/03/28 00:17:59;;;;;;;12.50;4.60;;;;;;;;;;5054792;28;20472;-77
2023/03/28 00:20:24;;;;;;;14.00;6.50;;;;;;;;;;5038160;28;20443;-79
2023/03/28 00:22:49;;;;;;;10.45;5.63;;;;;;;;;;5054740;28;20132;-78
2023/03/28 00:25:15;;;;;;;12.15;4.47;;;;;;;;;;5056052;28;20119;-78
2023/03/28 00:27:40;;;;;;;13.75;7.35;;;;;;;;;;5047928;28;20025;-77
2023/03/28 00:30:07;;;;;;;13.30;7.50;;;;;;;;;;5033332;28;20470;-78
2023/03/28 00:32:32;;;;;;;13.43;6.43;;;;;;;;;;5034286;28;20335;-78
2023/03/28 00:34:58;;;;;;;11.65;5.35;;;;;;;;;;5034267;28;20175;-78
2023/03/28 00:37:24;;;;;;;13.23;5.97;;;;;;;;;;5035879;28;20108;-78
2023/03/28 00:39:49;;;;;;;10.52;5.15;;;;;;;;;;5018114;28;20136;-79
2023/03/28 00:42:19;;;;;;;6.45;3.60;;;;;;;;;;5034531;28;20152;-78
2023/03/28 00:44:52;;;;;;;8.05;4.20;;;;;;;;;;5018177;28;20438;-78
2023/03/28 00:47:24;;;;;;;8.30;3.85;;;;;;;;;;5002042;28;20034;-78
2023/03/28 00:49:51;;;;;;;7.10;3.40;;;;;;;;;;5018269;28;20041;-78
2023/03/28 00:52:17;;;;;;;7.80;4.03;;;;;;;;;;5034304;28;20037;-78
2023/03/28 00:54:42;;;;;;;6.38;3.03;;;;;;;;;;5034489;28;20025;-79
2023/03/28 00:57:08;;;;;;;9.27;4.95;;;;;;;;;;5001741;28;20428;-78
2023/03/28 00:59:34;;;;;;;8.80;4.75;;;;;;;;;;5034383;28;20022;-78
2023/03/28 01:02:00;;;;;;;9.32;4.78;;;;;;;;;;5017212;28;20032;-78
2023/03/28 01:04:51;;;;;;;10.38;5.63;;;;;;;;;;5034073;28;20022;-78
2023/03/28 01:07:17;;;;;;;;;;;;;;;;;;5027965;28;20453;-79
2023/03/28 01:09:43;;;;;;;16.52;7.65;;;;;;;;;;5017812;28;19913;-78
2023/03/28 01:12:09;;;;;;;16.42;8.73;;;;;;;;;;5017525;28;20359;-78
2023/03/28 01:14:35;;;;;;;10.60;5.60;;;;;;;;;;5018229;28;20033;-79
2023/03/28 01:17:01;;;;;;;15.00;7.70;;;;;;;;;;5017593;28;20025;-78
2023/03/28 01:19:35;;;;;;;20.10;6.93;;;;;;;;;;5034943;28;20103;-76
2023/03/28 01:22:25;;;;;;;12.98;7.13;;;;;;;;;;5034014;28;20040;-77
2023/03/28 01:25:01;;;;;;;13.20;6.00;;;;;;;;;;5035141;28;20021;-77
2023/03/28 01:27:29;;;;;;;8.10;4.68;;;;;;;;;;5038299;28;20049;-77
2023/03/28 01:30:15;;;;;;;12.52;6.85;;;;;;;;;;5053681;28;20046;-77
2023/03/28 01:33:16;;;;;;;9.90;4.97;;;;;;;;;;5042902;28;20472;-76
2023/03/28 01:35:56;;;;;;;10.57;5.18;;;;;;;;;;5053628;28;20439;-78
2023/03/28 01:38:28;;;;;;;9.60;4.60;;;;;;;;;;5053515;28;20031;-78
2023/03/28 01:41:02;;;;;;;5.13;3.13;;;;;;;;;;5053576;28;20347;-79
2023/03/28 01:43:43;;;;;;;5.28;3.20;;;;;;;;;;5036028;28;20032;-79
2023/03/28 01:46:26;;;;;;;7.03;4.45;;;;;;;;;;5053380;28;20078;-78
2023/03/28 01:49:27;;;;;;;10.13;5.55;;;;;;;;;;5052838;28;20033;-78
2023/03/28 01:52:12;;;;;;;11.25;5.90;;;;;;;;;;5042348;28;20059;-78
2023/03/28 01:54:51;;;;;;;14.23;6.30;;;;;;;;;;5053096;28;20029;-78
2023/03/28 01:57:21;;;;;;;7.57;4.05;;;;;;;;;;5053276;28;20377;-78
2023/03/28 01:59:49;;;;;;;;;;;;;;;;;;5037343;28;20017;-78
2023/03/28 02:02:21;;;;;;;8.70;4.20;;;;;;;;;;5052982;28;19912;-78
2023/03/28 02:04:47;;;;;;;7.95;4.32;;;;;;;;;;5036887;28;20081;-78
2023/03/28 02:07:12;;;;;;;10.00;4.50;;;;;;;;;;5036573;28;20057;-78
2023/03/28 02:09:39;;;;;;;11.43;5.95;;;;;;;;;;5052923;28;20025;-78
2023/03/28 02:12:33;;;;;;;8.75;4.22;;;;;;;;;;5020118;28;20037;-77
2023/03/28 02:14:59;;;;;;;10.27;4.88;;;;;;;;;;5035166;28;20037;-79
2023/03/28 02:17:24;;;;;;;10.38;5.15;;;;;;;;;;5036141;28;20089;-78
2023/03/28 02:19:58;;;;;;;10.52;5.72;;;;;;;;;;5036900;28;20025;-78
2023/03/28 02:22:37;;;;;;;13.70;7.00;;;;;;;;;;5052769;28;20055;-78
2023/03/28 02:25:03;;;;;;;10.25;6.03;;;;;;;;;;5037479;28;20032;-78
2023/03/28 02:27:28;;;;;;;9.48;5.68;;;;;;;;;;5027824;28;20017;-77
2023/03/28 02:29:53;;;;;;;11.00;5.50;;;;;;;;;;5012958;28;20041;-78
2023/03/28 02:32:20;;;;;;;11.88;7.15;;;;;;;;;;4995090;28;20041;-77
2023/03/28 02:34:47;;;;;;;13.15;6.57;;;;;;;;;;5016361;28;20048;-77
2023/03/28 02:37:31;;;;;;;11.63;5.85;;;;;;;;;;5033105;28;20480;-77
2023/03/28 02:40:11;;;;;;;11.80;6.88;;;;;;;;;;5034167;28;20037;-77
2023/03/28 02:42:54;;;;;;;9.90;5.97;;;;;;;;;;5032590;28;20034;-77
2023/03/28 02:45:42;;;;;;;12.60;7.03;;;;;;;;;;5032485;28;20377;-79
2023/03/28 02:48:25;;;;;;;14.98;7.15;;;;;;;;;;5032502;28;20025;-78
2023/03/28 02:51:11;;;;;;;13.90;8.30;;;;;;;;;;5032455;28;20068;-79
2023/03/28 02:54:11;;;;;;;10.20;6.18;;;;;;;;;;5032542;28;20035;-78
2023/03/28 02:56:45;;;;;;;12.25;6.68;;;;;;;;;;5040068;28;20033;-78
2023/03/28 02:59:15;;;;;;;11.02;6.30;;;;;;;;;;5039174;28;20477;-79
2023/03/28 03:01:41;;;;;;;12.95;6.68;;;;;;;;;;5038710;28;20450;-76
2023/03/28 03:04:06;;;;;;;11.02;6.32;;;;;;;;;;5022674;28;20021;-78
2023/03/28 03:06:34;;;;;;;17.77;8.55;;;;;;;;;;5022877;28;20048;-78
2023/03/28 03:09:00;;;;;;;17.60;9.45;;;;;;;;;;5039327;28;20034;-78
2023/03/28 03:11:27;;;;;;;15.35;7.43;;;;;;;;;;5038938;28;20033;-78
2023/03/28 03:13:53;;;;;;;14.60;7.47;;;;;;;;;;5022971;28;20118;-79
2023/03/28 03:16:19;;;;;;;10.82;6.78;;;;;;;;;;5038719;28;20032;-78
2023/03/28 03:18:45;;;;;;;17.77;6.93;;;;;;;;;;5022946;28;20029;-78
2023/03/28 03:21:10;;;;;;;8.48;4.68;;;;;;;;;;5040356;28;20029;-77
2023/03/28 03:23:36;;;;;;;10.60;5.07;;;;;;;;;;5038800;28;20022;-76
2023/03/28 03:26:01;;;;;;;10.23;6.00;;;;;;;;;;5038911;28;20029;-76
2023/03/28 03:28:27;;;;;;;12.38;5.55;;;;;;;;;;5038874;28;20449;-77
2023/03/28 03:30:52;;;;;;;11.10;5.85;;;;;;;;;;5038539;28;20033;-78
2023/03/28 03:33:18;;;;;;;11.23;5.88;;;;;;;;;;5020786;28;20052;-78
2023/03/28 03:35:44;;;;;;;8.45;4.60;;;;;;;;;;5046727;28;20024;-78
2023/03/28 03:38:10;;;;;;;5.78;3.55;;;;;;;;;;5058760;28;20025;-78
2023/03/28 03:40:35;;;;;;;10.55;5.22;;;;;;;;;;5058675;28;20115;-78
2023/03/28 03:43:01;;;;;;;8.55;5.10;;;;;;;;;;5058758;28;20025;-77
2023/03/28 03:45:26;;;;;;;8.90;4.53;;;;;;;;;;5059588;28;20021;-78
2023/03/28 03:47:51;;;;;;;8.48;4.85;;;;;;;;;;5058450;28;20110;-78
2023/03/28 03:50:17;;;;;;;10.50;4.65;;;;;;;;;;5059586;28;20420;-77
2023/03/28 03:52:43;;;;;;;9.68;5.60;;;;;;;;;;5059788;28;20029;-78
2023/03/28 03:55:08;;;;;;;9.00;4.40;;;;;;;;;;5058654;28;20029;-78
2023/03/28 03:57:34;;;;;;;10.20;4.93;;;;;;;;;;5059694;28;20035;-79
2023/03/28 04:00:00;;;;;;;9.35;4.38;;;;;;;;;;5041525;28;20028;-78
2023/03/28 04:02:26;;;;;;;7.22;4.13;;;;;;;;;;5058470;28;20089;-78
2023/03/28 04:04:52;;;;;;;8.57;4.78;;;;;;;;;;5041740;28;20365;-79
2023/03/28 04:07:18;;;;;;;8.45;4.57;;;;;;;;;;5038665;28;20033;-78
2023/03/28 04:09:43;;;;;;;9.00;5.28;;;;;;;;;;5038697;28;20029;-78
2023/03/28 04:12:09;;;;;;;8.13;4.72;;;;;;;;;;5040505;28;20033;-78
2023/03/28 04:14:34;;;;;;;7.53;4.35;;;;;;;;;;5018549;28;20026;-78
2023/03/28 04:17:00;;;;;;;10.82;5.72;;;;;;;;;;5036446;28;20194;-79
2023/03/28 04:19:26;;;;;;;15.13;4.78;;;;;;;;;;5036301;28;20037;-77
2023/03/28 04:21:55;;;;;;;11.23;6.00;;;;;;;;;;5034931;28;20033;-79
2023/03/28 04:24:23;;;;;;;14.07;6.25;;;;;;;;;;5036168;28;20037;-79
2023/03/28 04:26:49;;;;;;;12.52;5.88;;;;;;;;;;5018327;28;20095;-78
2023/03/28 04:29:15;;;;;;;10.27;6.05;;;;;;;;;;5018509;28;20037;-79
2023/03/28 04:31:48;;;;;;;12.43;7.18;;;;;;;;;;5035977;28;20435;-79
2023/03/28 04:34:14;;;;;;;12.02;6.85;;;;;;;;;;5023157;28;20111;-79
2023/03/28 04:36:40;;;;;;;12.65;7.15;;;;;;;;;;5038158;28;20032;-79
2023/03/28 04:39:06;;;;;;;11.98;6.47;;;;;;;;;;5055741;28;20036;-79
2023/03/28 04:41:32;;;;;;;12.02;6.70;;;;;;;;;;5054822;28;20029;-79
2023/03/28 04:44:01;;;;;;;13.90;8.02;;;;;;;;;;5049138;28;20029;-79
2023/03/28 04:46:30;;;;;;;10.82;6.47;;;;;;;;;;5016023;28;20025;-77
2023/03/28 04:48:59;;;;;;;12.70;7.97;;;;;;;;;;5036428;28;20079;-78
2023/03/28 04:51:27;;;;;;;16.08;8.95;;;;;;;;;;5030166;28;20180;-78
2023/03/28 04:53:53;;;;;;;17.65;8.85;;;;;;;;;;5024150;28;21060;-78
2023/03/28 04:56:24;;;;;;;10.60;5.03;;;;;;;;;;5026701;28;20061;-79
2023/03/28 04:58:50;;;;;;;17.25;8.23;;;;;;;;;;5025814;28;20025;-78
2023/03/28 05:01:38;;;;;;;7.65;4.80;;;;;;;;;;5024145;28;20038;-78
2023/03/28 05:04:05;;;;;;;12.65;6.13;;;;;;;;;;5010132;28;20026;-77
2023/03/28 05:06:34;;;;;;;12.00;6.80;;;;;;;;;;5012939;28;20083;-79
2023/03/28 05:12:24;;;;;;;18.77;9.57;;;;;;;;;;5032282;28;20079;-78
2023/03/28 05:14:50;;;;;;;15.00;7.30;;;;;;;;;;5021837;28;20374;-78
2023/03/28 05:17:23;;;;;;;15.48;8.43;;;;;;;;;;5032500;28;20029;-80
2023/03/28 05:19:50;;;;;;;10.90;5.57;;;;;;;;;;5028774;28;20128;-79
2023/03/28 05:22:15;;;;;;;15.25;8.60;;;;;;;;;;5027851;28;20033;-79
2023/03/28 05:24:40;;;;;;;14.57;8.90;;;;;;;;;;5029053;28;20447;-80
2023/03/28 05:27:09;;;;;;;13.85;7.13;;;;;;;;;;5034323;28;20471;-79
2023/03/28 05:29:35;;;;;;;11.57;6.65;;;;;;;;;;5030282;28;20030;-79
2023/03/28 05:32:00;;;;;;;14.00;7.57;;;;;;;;;;5028371;28;20424;-78
2023/03/28 05:34:28;;;;;;;22.20;7.85;;;;;;;;;;5027060;28;20029;-78
2023/03/28 05:36:55;;;;;;;17.73;7.10;;;;;;;;;;5033369;28;20363;-78
2023/03/28 05:39:22;;;;;;;12.05;6.78;;;;;;;;;;5023877;28;20036;-78
2023/03/28 05:41:48;;;;;;;14.15;8.13;;;;;;;;;;5027436;28;20056;-77
2023/03/28 05:44:16;;;;;;;16.88;9.48;;;;;;;;;;5030116;28;20453;-78
2023/03/28 05:46:44;;;;;;;14.30;7.00;;;;;;;;;;5029011;28;20111;-76
2023/03/28 05:49:11;;;;;;;16.83;8.82;;;;;;;;;;5031442;28;20427;-76
2023/03/28 05:51:37;;;;;;;16.95;7.95;;;;;;;;;;5028791;28;20045;-79
2023/03/28 05:54:03;;;;;;;11.00;7.60;;;;;;;;;;5022635;28;20041;-80
2023/03/28 05:56:36;;;;;;;15.77;8.95;;;;;;;;;;5064690;22;20056;-80
2023/03/28 05:59:02;;;;;;;11.57;7.90;;;;;;;;;;5028967;28;20028;-78
2023/03/28 06:01:28;;;;;;;10.40;5.85;;;;;;;;;;5017115;28;20132;-78
2023/03/28 06:03:54;;;;;;;12.43;6.55;;;;;;;;;;5052971;28;20033;-78
2023/03/28 06:06:20;;;;;;;17.73;8.43;;;;;;;;;;5042550;28;20031;-79
2023/03/28 06:08:46;;;;;;;14.38;7.85;;;;;;;;;;5009115;28;20059;-76
2023/03/28 06:11:11;;;;;;;15.10;8.57;;;;;;;;;;5063290;28;20028;-78
2023/03/28 06:13:38;;;;;;;20.05;8.32;;;;;;;;;;5018908;28;20039;-77
2023/03/28 06:16:04;;;;;;;15.85;8.60;;;;;;;;;;5015335;28;20053;-78
2023/03/28 06:18:29;;;;;;;15.27;8.15;;;;;;;;;;5051667;28;20051;-79
2023/03/28 06:20:55;;;;;;;16.98;10.55;;;;;;;;;;5054164;28;20031;-78
2023/03/28 06:23:21;;;;;;;13.70;7.97;;;;;;;;;;5075624;28;20055;-78
2023/03/28 06:25:47;;;;;;;21.42;9.55;;;;;;;;;;5072052;28;20086;-79
2023/03/28 06:28:12;;;;;;;25.58;9.13;;;;;;;;;;5064513;28;20035;-77
2023/03/28 06:30:40;;;;;;;12.20;7.10;;;;;;;;;;5074656;28;20442;-76
2023/03/28 06:33:06;;;;;;;15.45;8.85;;;;;;;;;;5054530;28;20060;-77
2023/03/28 06:35:32;;;;;;;17.20;9.55;;;;;;;;;;5069035;28;20024;-77
2023/03/28 06:37:59;;;;;;;14.95;8.00;;;;;;;;;;5069355;28;20036;-75
2023/03/28 06:40:27;;;;;;;21.33;8.93;;;;;;;;;;5078686;28;20024;-77
2023/03/28 06:42:54;;;;;;;14.77;9.00;;;;;;;;;;5069544;28;20020;-76
2023/03/28 06:45:22;;;;;;;16.40;9.10;;;;;;;;;;5047459;28;20093;-77
2023/03/28 06:47:49;;;;;;;15.55;8.63;;;;;;;;;;5076823;28;20024;-76
2023/03/28 06:50:15;;;;;;;15.23;8.48;;;;;;;;;;5041853;28;20039;-80
2023/03/28 06:52:41;;;;;;;13.70;7.15;;;;;;;;;;5064797;28;20478;-78
2023/03/28 06:55:07;;;;;;;16.27;9.20;;;;;;;;;;5069736;28;20062;-78
2023/03/28 06:57:34;;;;;;;17.42;8.00;;;;;;;;;;5063121;28;20027;-75
2023/03/28 07:00:00;;;;;;;13.90;7.32;;;;;;;;;;5069294;28;20025;-75
2023/03/28 07:02:25;;;;;;;12.38;7.60;;;;;;;;;;5062563;28;20036;-78
2023/03/28 07:04:51;;;;;;;12.18;7.63;;;;;;;;;;5056706;28;20029;-78
2023/03/28 07:07:16;;;;;;;10.52;6.70;;;;;;;;;;5043690;28;20044;-77
2023/03/28 07:09:42;;;;;;;16.70;7.25;;;;;;;;;;5046386;28;20032;-77
2023/03/28 07:12:07;;;;;;;13.98;7.20;;;;;;;;;;5069574;28;20072;-78
2023/03/28 07:14:33;;;;;;;13.82;7.22;;;;;;;;;;5029893;28;20109;-76
2023/03/28 07:16:59;;;;;;;11.82;4.82;;;;;;;;;;5058608;28;20033;-76
2023/03/28 07:19:28;;;;;;;13.57;6.53;;;;;;;;;;5048990;28;20108;-77
2023/03/28 07:21:54;;;;;;;11.82;5.22;;;;;;;;;;5059442;28;20035;-77
2023/03/28 07:24:20;;;;;;;9.73;5.38;;;;;;;;;;5041435;28;20033;-77
2023/03/28 07:26:45;;;;;;;13.80;6.75;;;;;;;;;;5052063;28;20044;-77
2023/03/28 07:29:10;;;;;;;12.38;5.93;;;;;;;;;;5055514;28;20068;-78
2023/03/28 07:31:40;;;;;;;8.70;5.38;;;;;;;;;;5072638;28;20401;-78
2023/03/28 07:34:05;;;;;;;11.35;6.18;;;;;;;;;;5058764;28;20033;-79
2023/03/28 07:36:34;;;;;;;13.80;6.75;;;;;;;;;;5067765;28;20033;-79
2023/03/28 07:39:00;;;;;;;17.25;6.20;;;;;;;;;;5056680;28;20598;-78
2023/03/28 07:41:26;;;;;;;8.68;4.93;;;;;;;;;;5041264;28;20350;-78
2023/03/28 07:43:51;;;;;;;13.77;5.20;;;;;;;;;;5073928;28;20035;-79
2023/03/28 07:46:19;;;;;;;9.80;5.40;;;;;;;;;;5057267;28;20370;-77
2023/03/28 07:48:45;;;;;;;9.98;4.45;;;;;;;;;;5066857;28;20024;-77
2023/03/28 07:51:15;;;;;;;11.25;6.28;;;;;;;;;;5060061;28;20032;-77
2023/03/28 07:53:41;;;;;;;19.38;7.50;;;;;;;;;;5069421;28;20531;-77
2023/03/28 07:56:10;;;;;;;14.25;6.22;;;;;;;;;;5072883;28;20032;-78
2023/03/28 07:58:45;;;;;;;13.10;6.67;;;;;;;;;;5050334;28;20067;-78
2023/03/28 08:01:11;;;;;;;20.38;8.30;;;;;;;;;;5053298;28;20040;-78
2023/03/28 08:03:37;;;;;;;14.07;6.78;;;;;;;;;;5073654;28;20021;-78
2023/03/28 08:06:07;;;;;;;15.20;8.57;;;;;;;;;;5072722;28;20827;-77
2023/03/28 08:08:33;;;;;;;20.27;5.47;;;;;;;;;;5048223;28;20017;-78
2023/03/28 08:10:58;;;;;;;12.90;6.35;;;;;;;;;;5069199;28;20033;-76
2023/03/28 08:13:24;;;;;;;13.98;5.70;;;;;;;;;;5070781;28;20021;-78
2023/03/28 08:15:50;;;;;;;10.80;4.20;;;;;;;;;;5070902;28;20024;-78
2023/03/28 08:18:20;;;;;;;11.70;4.97;;;;;;;;;;5066440;28;20045;-77
2023/03/28 08:20:48;;;;;;;14.40;5.55;;;;;;;;;;5056971;28;20033;-79
2023/03/28 08:23:14;;;;;;;9.75;5.13;;;;;;;;;;5018722;28;20024;-78
2023/03/28 08:25:39;;;;;;;7.80;4.85;;;;;;;;;;5054135;28;20083;-78
2023/03/28 08:28:05;;;;;;;11.60;5.32;;;;;;;;;;5053974;28;20028;-77
2023/03/28 08:30:31;;;;;;;6.07;3.95;;;;;;;;;;5052258;28;20123;-77
2023/03/28 08:32:56;;;;;;;12.82;4.85;;;;;;;;;;5053816;28;20055;-77
2023/03/28 08:35:21;;;;;;;9.63;5.28;;;;;;;;;;5052799;28;20025;-77
2023/03/28 08:37:48;;;;;;;8.85;5.22;;;;;;;;;;5072011;28;20029;-77
2023/03/28 08:40:15;;;;;;;11.85;5.03;;;;;;;;;;5038220;28;20100;-79
2023/03/28 08:42:46;;;;;;;9.15;5.35;;;;;;;;;;5037350;28;20374;-77
2023/03/28 08:45:21;;;;;;;8.25;4.75;;;;;;;;;;5054599;28;20039;-79
2023/03/28 08:47:52;;;;;;;17.23;5.22;;;;;;;;;;5066357;28;20487;-79
2023/03/28 08:50:22;;;;;;;9.75;5.00;;;;;;;;;;5045691;28;20446;-78
2023/03/28 08:52:48;;;;;;;36.72;16.27;;;;;;;;;;5047912;28;20124;-79
2023/03/28 08:55:32;;;;;;;9.63;4.95;;;;;;;;;;5005448;28;20143;-78
2023/03/28 08:57:57;;;;;;;18.50;8.57;;;;;;;;;;5054895;28;20103;-78
2023/03/28 09:00:26;;;;;;;16.98;6.00;;;;;;;;;;5061040;28;20404;-79
2023/03/28 09:02:52;;;;;;;13.88;5.78;;;;;;;;;;5072527;28;20032;-79
2023/03/28 09:05:27;;;;;;;9.43;5.47;;;;;;;;;;5041567;28;20319;-78
2023/03/28 09:08:14;;;;;;;10.43;5.10;;;;;;;;;;5074314;28;20035;-78
2023/03/28 09:10:46;;;;;;;13.02;5.07;;;;;;;;;;5057269;28;20035;-79
2023/03/28 09:13:20;;;;;;;10.27;4.50;;;;;;;;;;5059664;28;20469;-78
2023/03/28 09:16:08;;;;;;;11.80;5.10;;;;;;;;;;5076864;28;20041;-79
2023/03/28 09:18:53;;;;;;;14.50;4.78;;;;;;;;;;5055749;28;20032;-79
2023/03/28 09:21:21;;;;;;;5.97;4.35;;;;;;;;;;5071892;28;20028;-78
2023/03/28 09:24:27;;;;;;;10.40;5.18;;;;;;;;;;5073170;28;20082;-78
2023/03/28 09:27:05;;;;;;;9.95;4.50;;;;;;;;;;5075198;28;20464;-77
2023/03/28 09:29:33;;;;;;;13.60;4.93;;;;;;;;;;5055195;28;20048;-79
2023/03/28 09:32:24;;;;;;;11.60;5.07;;;;;;;;;;5046760;28;20036;-79
2023/03/28 09:34:51;;;;;;;9.98;5.07;;;;;;;;;;5077686;28;20062;-79
2023/03/28 09:37:21;;;;;;;8.13;4.07;;;;;;;;;;5088334;28;20054;-77
2023/03/28 09:39:48;;;;;;;7.65;4.40;;;;;;;;;;5037382;28;20037;-79
2023/03/28 09:42:26;;;;;;;8.88;4.38;;;;;;;;;;5057534;28;20055;-79
2023/03/28 09:45:24;;;;;;;11.73;5.10;;;;;;;;;;5041531;28;20060;-79
2023/03/28 09:47:49;;;;;;;13.25;4.60;;;;;;;;;;5034811;28;20045;-80
2023/03/28 09:50:16;;;;;;;8.15;4.20;;;;;;;;;;5059575;28;20183;-79
2023/03/28 09:52:41;;;;;;;10.25;4.72;;;;;;;;;;5063454;28;20159;-80
2023/03/28 09:55:22;;;;;;;7.15;4.15;;;;;;;;;;5046214;28;20074;-78
2023/03/28 09:58:07;;;;;;;13.23;4.30;;;;;;;;;;5040931;28;20374;-79
2023/03/28 10:00:37;;;;;;;9.23;4.07;;;;;;;;;;5070936;28;20114;-77
2023/03/28 10:03:02;;;;;;;14.68;4.97;;;;;;;;;;5059609;28;20040;-77
2023/03/28 10:05:35;;;;;;;10.57;5.15;;;;;;;;;;5062429;28;20025;-80
2023/03/28 10:08:23;;;;;;;13.55;5.32;;;;;;;;;;5074634;28;20027;-80
2023/03/28 10:11:03;;;;;;;13.35;5.43;;;;;;;;;;5059244;28;20051;-78
2023/03/28 10:13:36;;;;;;;17.35;5.30;;;;;;;;;;5053292;28;20461;-79
2023/03/28 10:16:02;;;;;;;15.20;5.50;;;;;;;;;;5062681;28;20029;-78
2023/03/28 10:18:28;;;;;;;10.48;5.03;;;;;;;;;;5054700;28;20426;-79
2023/03/28 10:21:07;;;;;;;11.57;4.50;;;;;;;;;;5043374;28;20032;-79
2023/03/28 10:23:33;;;;;;;6.68;4.05;;;;;;;;;;5057925;28;20032;-77
2023/03/28 10:26:00;;;;;;;19.73;4.28;;;;;;;;;;5040889;28;20511;-79
2023/03/28 10:28:29;;;;;;;15.55;5.03;;;;;;;;;;5026224;28;20037;-78
2023/03/28 10:31:00;;;;;;;6.32;3.58;;;;;;;;;;5039570;28;20090;-79
2023/03/28 10:33:45;;;;;;;8.30;3.90;;;;;;;;;;5027543;28;20039;-78
2023/03/28 10:36:15;;;;;;;8.63;3.67;;;;;;;;;;5076505;28;20447;-77
2023/03/28 10:38:46;;;;;;;11.30;4.22;;;;;;;;;;5041951;28;20031;-76
2023/03/28 10:41:18;;;;;;;21.92;9.18;;;;;;;;;;5074491;28;20043;-79
2023/03/28 10:43:43;;;;;;;8.15;4.50;;;;;;;;;;5072600;28;20072;-80
2023/03/28 10:46:28;;;;;;;15.30;5.00;;;;;;;;;;5073236;28;20027;-80
2023/03/28 10:49:04;;;;;;;8.25;2.88;;;;;;;;;;5073554;28;20059;-79
2023/03/28 10:51:31;;;;;;;13.52;4.85;;;;;;;;;;5039816;28;20032;-77
2023/03/28 10:54:03;;;;;;;12.40;4.43;;;;;;;;;;5056082;28;20032;-79
2023/03/28 10:56:54;;;;;;;12.98;5.20;;;;;;;;;;5088251;28;20054;-78
2023/03/28 10:59:41;;;;;;;12.13;6.22;;;;;;;;;;5093116;28;20075;-78
2023/03/28 11:02:45;;;;;;;33.10;6.95;;;;;;;;;;5059461;28;20040;-79
2023/03/28 11:05:27;;;;;;;13.80;5.60;;;;;;;;;;5052222;28;20462;-79
2023/03/28 11:08:18;;;;;;;9.57;5.40;;;;;;;;;;5031413;28;20047;-79
2023/03/28 11:11:35;;;;;;;7.82;3.85;;;;;;;;;;5053000;28;20127;-80
2023/03/28 11:14:34;;;;;;;15.95;6.03;;;;;;;;;;5027690;28;20079;-77
2023/03/28 11:17:19;;;;;;;10.23;4.40;;;;;;;;;;5076460;28;20036;-78
2023/03/28 11:19:51;;;;;;;6.47;3.22;;;;;;;;;;5058456;28;20024;-78
2023/03/28 11:22:45;;;;;;;8.68;3.30;;;;;;;;;;5073943;28;20436;-78
2023/03/28 11:25:20;;;;;;;10.55;4.03;;;;;;;;;;5054658;28;20424;-77
2023/03/28 11:28:06;;;;;;;13.77;4.45;;;;;;;;;;5068838;28;20122;-78
2023/03/28 11:30:33;;;;;;;7.60;3.47;;;;;;;;;;5046730;28;20059;-79
2023/03/28 11:33:04;;;;;;;13.75;4.32;;;;;;;;;;5054913;28;20370;-80
2023/03/28 11:35:35;;;;;;;19.52;5.20;;;;;;;;;;5072536;28;20090;-76
2023/03/28 11:38:10;;;;;;;14.23;5.00;;;;;;;;;;5055131;28;20024;-78
2023/03/28 11:40:55;;;;;;;12.45;3.75;;;;;;;;;;5038742;28;20028;-77
2023/03/28 11:43:26;;;;;;;15.80;5.05;;;;;;;;;;5052285;28;20032;-78
2023/03/28 11:45:52;;;;;;;16.70;5.20;;;;;;;;;;5056443;28;20033;-78
2023/03/28 11:48:27;;;;;;;16.13;4.65;;;;;;;;;;5040886;28;20147;-78
2023/03/28 11:51:12;;;;;;;15.50;5.90;;;;;;;;;;5023692;28;20361;-79
2023/03/28 11:53:51;;;;;;;11.45;5.80;;;;;;;;;;5040335;28;20036;-80
2023/03/28 11:56:43;;;;;;;18.02;7.75;;;;;;;;;;5055880;28;20048;-79
2023/03/28 11:59:11;;;;;;;21.17;4.97;;;;;;;;;;5057156;28;20028;-79
2023/03/28 12:01:40;;;;;;;11.35;3.55;;;;;;;;;;5052809;28;20035;-80
2023/03/28 12:04:20;;;;;;;33.05;8.95;;;;;;;;;;5021532;28;20050;-79
2023/03/28 12:07:09;;;;;;;10.35;4.07;;;;;;;;;;5038350;28;20115;-78
2023/03/28 12:09:57;;;;;;;15.48;4.68;;;;;;;;;;5057489;28;20040;-78
2023/03/28 12:12:27;;;;;;;7.88;3.33;;;;;;;;;;5075323;28;20028;-77
2023/03/28 12:15:01;;;;;;;9.13;4.30;;;;;;;;;;5042495;28;20024;-79
2023/03/28 12:17:42;;;;;;;10.98;4.53;;;;;;;;;;5042617;28;20074;-77
2023/03/28 12:20:12;;;;;;;;;;;;;;;;;;5059040;28;20024;-77
2023/03/28 12:22:39;;;;;;;6.45;4.15;;;;;;;;;;5071319;28;19931;-77
2023/03/28 12:25:27;;;;;;;15.32;4.45;;;;;;;;;;5057324;28;20021;-77
2023/03/28 12:28:19;;;;;;;11.50;3.78;;;;;;;;;;5041018;28;20028;-78
2023/03/28 12:31:19;;;;;;;26.02;4.63;;;;;;;;;;5057986;28;20021;-79
2023/03/28 12:33:53;;;;;;;7.43;3.92;;;;;;;;;;5056697;28;20465;-78
2023/03/28 12:36:48;;;;;;;9.60;4.32;;;;;;;;;;5042517;28;20106;-78
2023/03/28 12:39:37;;;;;;;6.57;3.67;;;;;;;;;;5041679;28;20060;-79
2023/03/28 12:42:07;;;;;;;10.45;4.35;;;;;;;;;;5058028;28;20028;-78
2023/03/28 12:44:41;;;;;;;6.35;3.75;;;;;;;;;;5058178;28;20088;-78
2023/03/28 12:47:12;;;;;;;9.38;3.70;;;;;;;;;;5041468;28;20162;-77
2023/03/28 12:49:42;;;;;;;13.55;3.55;;;;;;;;;;5058527;28;20024;-78
2023/03/28 12:52:13;;;;;;;9.43;4.47;;;;;;;;;;5057855;28;20462;-79
2023/03/28 12:54:58;;;;;;;9.25;3.38;;;;;;;;;;5025077;28;20033;-79
2023/03/28 12:57:39;;;;;;;10.30;2.97;;;;;;;;;;5019041;28;20034;-80
2023/03/28 13:00:26;;;;;;;7.63;3.17;;;;;;;;;;5029438;28;20026;-78
2023/03/28 13:03:04;;;;;;;7.30;3.42;;;;;;;;;;5035397;28;20472;-78
2023/03/28 13:05:49;;;;;;;6.63;3.03;;;;;;;;;;5035284;28;20029;-78
2023/03/28 13:08:19;;;;;;;5.15;3.10;;;;;;;;;;5034080;28;20025;-79
2023/03/28 13:11:06;;;;;;;12.95;3.17;;;;;;;;;;5033810;28;20431;-79
2023/03/28 13:13:35;;;;;;;6.10;2.55;;;;;;;;;;5034203;28;20059;-78
2023/03/28 13:16:04;;;;;;;6.03;3.35;;;;;;;;;;5034336;28;20147;-78
2023/03/28 13:18:33;;;;;;;14.88;3.78;;;;;;;;;;5017569;28;20378;-79
2023/03/28 13:21:01;;;;;;;6.00;3.78;;;;;;;;;;5001288;28;20029;-79
2023/03/28 13:23:45;;;;;;;7.93;3.10;;;;;;;;;;5017405;28;20034;-78
2023/03/28 13:26:11;;;;;;;7.22;2.75;;;;;;;;;;5017822;28;20034;-79
2023/03/28 13:28:46;;;;;;;9.65;3.60;;;;;;;;;;5033440;28;20021;-75
2023/03/28 13:31:20;;;;;;;9.30;3.08;;;;;;;;;;5033840;28;20037;-79
2023/03/28 13:33:57;;;;;;;14.63;3.15;;;;;;;;;;5017828;28;20340;-79
2023/03/28 13:36:35;;;;;;;17.30;3.53;;;;;;;;;;5018858;28;20530;-78
2023/03/28 13:39:06;;;;;;;11.43;2.90;;;;;;;;;;5000653;28;20048;-78
2023/03/28 13:41:41;;;;;;;11.32;3.30;;;;;;;;;;5034952;28;20032;-78
2023/03/28 13:44:15;;;;;;;7.93;3.45;;;;;;;;;;5033764;28;20108;-75
2023/03/28 13:46:44;;;;;;;7.07;3.35;;;;;;;;;;5017654;28;20029;-78
2023/03/28 13:49:14;;;;;;;7.28;3.10;;;;;;;;;;5033704;28;20036;-78
2023/03/28 13:51:48;;;;;;;7.77;2.70;;;;;;;;;;5033832;28;20033;-77
2023/03/28 13:54:14;;;;;;;6.47;2.67;;;;;;;;;;5034606;28;20037;-75
2023/03/28 13:56:45;;;;;;;9.30;3.28;;;;;;;;;;5033327;28;20060;-78
2023/03/28 13:59:38;;;;;;;8.77;3.30;;;;;;;;;;5017120;28;20025;-77
2023/03/28 14:02:36;;;;;;;8.10;3.28;;;;;;;;;;5028001;28;20060;-77
2023/03/28 14:05:23;;;;;;;6.80;2.72;;;;;;;;;;5034207;28;20041;-78
2023/03/28 14:07:49;;;;;;;35.22;17.05;;;;;;;;;;5032945;28;20045;-77
2023/03/28 14:10:34;;;;;;;15.23;3.20;;;;;;;;;;5032952;28;20044;-76
2023/03/28 14:13:09;;;;;;;6.20;3.72;;;;;;;;;;5034153;28;20029;-78
2023/03/28 14:15:36;;;;;;;3.78;2.60;;;;;;;;;;5017770;28;20371;-78
2023/03/28 14:18:01;;;;;;;10.82;5.40;;;;;;;;;;5016526;28;20033;-77
2023/03/28 14:20:26;;;;;;;5.55;3.83;;;;;;;;;;5016336;28;20091;-77
2023/03/28 14:22:52;;;;;;;8.95;3.08;;;;;;;;;;5033210;28;20037;-78
2023/03/28 14:25:18;;;;;;;10.40;3.20;;;;;;;;;;5016847;28;20025;-78
2023/03/28 14:27:53;;;;;;;7.38;2.95;;;;;;;;;;5000849;28;20037;-78
2023/03/28 14:30:27;;;;;;;5.40;2.80;;;;;;;;;;5000627;28;20080;-77
2023/03/28 14:33:11;;;;;;;5.57;3.40;;;;;;;;;;5033549;28;20056;-78
2023/03/28 14:35:38;;;;;;;6.55;3.25;;;;;;;;;;5033459;28;20446;-78
2023/03/28 14:38:12;;;;;;;4.55;2.88;;;;;;;;;;5034926;28;20034;-79
2023/03/28 14:40:39;;;;;;;4.60;2.97;;;;;;;;;;5017542;28;20026;-79
2023/03/28 14:43:09;;;;;;;8.13;3.08;;;;;;;;;;5017165;28;20036;-78
2023/03/28 14:45:39;;;;;;;5.30;2.85;;;;;;;;;;5017129;28;20033;-77
2023/03/28 14:48:06;;;;;;;4.70;2.75;;;;;;;;;;5016810;28;20108;-77
2023/03/28 14:50:34;;;;;;;5.03;2.72;;;;;;;;;;4999572;28;20497;-78
2023/03/28 14:53:05;;;;;;;6.18;2.83;;;;;;;;;;5016320;28;20041;-78
2023/03/28 14:55:31;;;;;;;6.63;2.70;;;;;;;;;;5027119;28;20397;-78
2023/03/28 14:57:56;;;;;;;5.22;3.20;;;;;;;;;;5039448;28;20090;-77
2023/03/28 15:00:34;;;;;;;4.85;3.17;;;;;;;;;;5072434;28;20036;-78
2023/03/28 15:02:59;;;;;;;8.15;3.13;;;;;;;;;;5065653;28;20032;-77
2023/03/28 15:05:25;;;;;;;8.98;2.45;;;;;;;;;;5055155;28;20102;-78